sensor_id;sensor_type;location;lat;lon;timestamp;P1;durP1;ratioP1;P2;durP2;ratioP2
30874;SDS011;17581;43.222;27.924;2023-02-26T00:00:11;33.88;;;10.98;;
30874;SDS011;17581;43.222;27.924;2023-02-26T00:02:42;29.15;;;10.50;;
30874;SDS011;17581;43.222;27.924;2023-02-26T00:05:10;30.98;;;11.10;;
30874;SDS011;17581;43.222;27.924;2023-02-26T00:07:36;36.58;;;11.57;;
30874;SDS011;17581;43.222;27.924;2023-02-26T00:10:02;37.20;;;12.43;;
30874;SDS011;17581;43.222;27.924;2023-02-26T00:12:29;36.60;;;11.75;;
30874;SDS011;17581;43.222;27.924;2023-02-26T00:14:55;29.27;;;11.30;;
30874;SDS011;17581;43.222;27.924;2023-02-26T00:20:05;36.15;;;11.82;;
30874;SDS011;17581;43.222;27.924;2023-02-26T00:22:32;29.25;;;10.93;;
30874;SDS011;17581;43.222;27.924;2023-02-26T00:24:57;35.20;;;11.25;;
30874;SDS011;17581;43.222;27.924;2023-02-26T00:27:23;31.10;;;11.60;;
30874;SDS011;17581;43.222;27.924;2023-02-26T00:29:48;32.58;;;12.35;;
30874;SDS011;17581;43.222;27.924;2023-02-26T00:32:14;31.52;;;12.00;;
30874;SDS011;17581;43.222;27.924;2023-02-26T00:34:42;33.92;;;10.90;;
30874;SDS011;17581;43.222;27.924;2023-02-26T00:37:12;30.13;;;12.07;;
30874;SDS011;17581;43.222;27.924;2023-02-26T00:42:20;36.72;;;12.73;;
30874;SDS011;17581;43.222;27.924;2023-02-26T00:44:46;30.83;;;10.65;;
30874;SDS011;17581;43.222;27.924;2023-02-26T00:47:35;30.05;;;10.80;;
30874;SDS011;17581;43.222;27.924;2023-02-26T00:50:08;40.43;;;12.03;;
30874;SDS011;17581;43.222;27.924;2023-02-26T00:55:20;37.95;;;11.25;;
30874;SDS011;17581;43.222;27.924;2023-02-26T00:57:45;39.88;;;10.30;;
30874;SDS011;17581;43.222;27.924;2023-02-26T01:00:12;38.65;;;11.18;;
30874;SDS011;17581;43.222;27.924;2023-02-26T01:02:38;44.35;;;12.55;;
30874;SDS011;17581;43.222;27.924;2023-02-26T01:05:05;40.05;;;11.25;;
30874;SDS011;17581;43.222;27.924;2023-02-26T01:07:33;37.90;;;11.95;;
30874;SDS011;17581;43.222;27.924;2023-02-26T01:10:06;37.60;;;12.52;;
30874;SDS011;17581;43.222;27.924;2023-02-26T01:12:32;25.83;;;12.20;;
30874;SDS011;17581;43.222;27.924;2023-02-26T01:14:58;32.55;;;10.95;;
30874;SDS011;17581;43.222;27.924;2023-02-26T01:17:33;27.85;;;11.20;;
30874;SDS011;17581;43.222;27.924;2023-02-26T01:20:13;34.17;;;11.60;;
30874;SDS011;17581;43.222;27.924;2023-02-26T01:22:47;44.60;;;11.38;;
30874;SDS011;17581;43.222;27.924;2023-02-26T01:25:22;30.23;;;11.77;;
30874;SDS011;17581;43.222;27.924;2023-02-26T01:27:54;42.85;;;12.23;;
30874;SDS011;17581;43.222;27.924;2023-02-26T01:30:21;48.97;;;12.02;;
30874;SDS011;17581;43.222;27.924;2023-02-26T01:36:16;40.60;;;11.85;;
30874;SDS011;17581;43.222;27.924;2023-02-26T01:41:08;54.30;;;12.93;;
30874;SDS011;17581;43.222;27.924;2023-02-26T01:49:41;37.28;;;11.95;;
30874;SDS011;17581;43.222;27.924;2023-02-26T01:55:18;28.98;;;11.65;;
30874;SDS011;17581;43.222;27.924;2023-02-26T01:57:46;24.67;;;10.25;;
30874;SDS011;17581;43.222;27.924;2023-02-26T02:00:12;39.55;;;10.95;;
30874;SDS011;17581;43.222;27.924;2023-02-26T02:02:39;34.90;;;11.82;;
30874;SDS011;17581;43.222;27.924;2023-02-26T02:05:20;34.40;;;9.95;;
30874;SDS011;17581;43.222;27.924;2023-02-26T02:07:51;35.47;;;10.63;;
30874;SDS011;17581;43.222;27.924;2023-02-26T02:10:17;41.58;;;11.43;;
30874;SDS011;17581;43.222;27.924;2023-02-26T02:18:42;36.92;;;11.60;;
30874;SDS011;17581;43.222;27.924;2023-02-26T02:23:44;36.97;;;11.35;;
30874;SDS011;17581;43.222;27.924;2023-02-26T02:34:59;33.35;;;10.27;;
30874;SDS011;17581;43.222;27.924;2023-02-26T02:37:45;31.83;;;10.05;;
30874;SDS011;17581;43.222;27.924;2023-02-26T02:40:17;39.05;;;11.25;;
30874;SDS011;17581;43.222;27.924;2023-02-26T02:42:48;31.50;;;9.85;;
30874;SDS011;17581;43.222;27.924;2023-02-26T02:45:23;30.05;;;9.73;;
30874;SDS011;17581;43.222;27.924;2023-02-26T02:47:52;27.02;;;8.68;;
30874;SDS011;17581;43.222;27.924;2023-02-26T02:50:31;35.03;;;10.35;;
30874;SDS011;17581;43.222;27.924;2023-02-26T02:53:03;33.65;;;9.82;;
30874;SDS011;17581;43.222;27.924;2023-02-26T02:56:00;34.78;;;10.32;;
30874;SDS011;17581;43.222;27.924;2023-02-26T02:58:30;39.17;;;10.40;;
30874;SDS011;17581;43.222;27.924;2023-02-26T03:01:01;40.50;;;9.75;;
30874;SDS011;17581;43.222;27.924;2023-02-26T03:06:03;30.02;;;10.30;;
30874;SDS011;17581;43.222;27.924;2023-02-26T03:08:30;40.60;;;9.77;;
30874;SDS011;17581;43.222;27.924;2023-02-26T03:11:01;32.80;;;9.55;;
30874;SDS011;17581;43.222;27.924;2023-02-26T03:13:26;36.35;;;10.30;;
30874;SDS011;17581;43.222;27.924;2023-02-26T03:15:56;45.10;;;10.30;;
30874;SDS011;17581;43.222;27.924;2023-02-26T03:24:26;34.65;;;10.10;;
30874;SDS011;17581;43.222;27.924;2023-02-26T03:29:57;46.72;;;10.52;;
30874;SDS011;17581;43.222;27.924;2023-02-26T03:32:31;28.45;;;8.80;;
30874;SDS011;17581;43.222;27.924;2023-02-26T03:35:07;37.45;;;9.70;;
30874;SDS011;17581;43.222;27.924;2023-02-26T03:37:37;22.00;;;9.30;;
30874;SDS011;17581;43.222;27.924;2023-02-26T03:43:18;37.00;;;9.80;;
30874;SDS011;17581;43.222;27.924;2023-02-26T03:45:50;32.13;;;9.80;;
30874;SDS011;17581;43.222;27.924;2023-02-26T03:48:22;34.08;;;9.73;;
30874;SDS011;17581;43.222;27.924;2023-02-26T03:50:50;41.97;;;10.15;;
30874;SDS011;17581;43.222;27.924;2023-02-26T03:53:21;44.22;;;10.93;;
30874;SDS011;17581;43.222;27.924;2023-02-26T03:58:51;40.58;;;10.02;;
30874;SDS011;17581;43.222;27.924;2023-02-26T04:01:19;32.38;;;8.93;;
30874;SDS011;17581;43.222;27.924;2023-02-26T04:03:58;38.20;;;9.85;;
30874;SDS011;17581;43.222;27.924;2023-02-26T04:06:40;42.00;;;11.18;;
30874;SDS011;17581;43.222;27.924;2023-02-26T04:09:06;33.03;;;10.98;;
30874;SDS011;17581;43.222;27.924;2023-02-26T04:11:32;40.05;;;10.80;;
30874;SDS011;17581;43.222;27.924;2023-02-26T04:13:59;30.10;;;10.88;;
30874;SDS011;17581;43.222;27.924;2023-02-26T04:16:24;34.28;;;9.93;;
30874;SDS011;17581;43.222;27.924;2023-02-26T04:18:50;32.08;;;9.23;;
30874;SDS011;17581;43.222;27.924;2023-02-26T04:21:16;51.22;;;10.75;;
30874;SDS011;17581;43.222;27.924;2023-02-26T04:23:44;28.40;;;8.60;;
30874;SDS011;17581;43.222;27.924;2023-02-26T04:26:10;37.60;;;9.20;;
30874;SDS011;17581;43.222;27.924;2023-02-26T04:28:37;38.63;;;10.07;;
30874;SDS011;17581;43.222;27.924;2023-02-26T04:31:03;30.05;;;8.45;;
30874;SDS011;17581;43.222;27.924;2023-02-26T04:33:30;31.02;;;9.07;;
30874;SDS011;17581;43.222;27.924;2023-02-26T04:35:57;47.95;;;10.40;;
30874;SDS011;17581;43.222;27.924;2023-02-26T04:38:23;32.92;;;8.70;;
30874;SDS011;17581;43.222;27.924;2023-02-26T04:40:48;26.70;;;8.05;;
30874;SDS011;17581;43.222;27.924;2023-02-26T04:43:14;42.50;;;9.00;;
30874;SDS011;17581;43.222;27.924;2023-02-26T04:45:41;36.42;;;9.10;;
30874;SDS011;17581;43.222;27.924;2023-02-26T04:48:06;46.55;;;9.13;;
30874;SDS011;17581;43.222;27.924;2023-02-26T04:50:31;32.28;;;9.60;;
30874;SDS011;17581;43.222;27.924;2023-02-26T04:52:57;36.60;;;8.52;;
30874;SDS011;17581;43.222;27.924;2023-02-26T04:55:22;31.65;;;10.02;;
30874;SDS011;17581;43.222;27.924;2023-02-26T04:57:48;44.03;;;9.77;;
30874;SDS011;17581;43.222;27.924;2023-02-26T05:00:13;41.35;;;9.73;;
30874;SDS011;17581;43.222;27.924;2023-02-26T05:02:39;25.13;;;8.65;;
30874;SDS011;17581;43.222;27.924;2023-02-26T05:05:05;34.70;;;10.30;;
30874;SDS011;17581;43.222;27.924;2023-02-26T05:07:31;36.70;;;9.75;;
30874;SDS011;17581;43.222;27.924;2023-02-26T05:09:56;37.58;;;8.95;;
30874;SDS011;17581;43.222;27.924;2023-02-26T05:12:22;33.45;;;9.65;;
30874;SDS011;17581;43.222;27.924;2023-02-26T05:14:47;25.52;;;8.32;;
30874;SDS011;17581;43.222;27.924;2023-02-26T05:17:13;28.25;;;8.90;;
30874;SDS011;17581;43.222;27.924;2023-02-26T05:19:38;32.63;;;8.80;;
30874;SDS011;17581;43.222;27.924;2023-02-26T05:22:04;34.78;;;9.30;;
30874;SDS011;17581;43.222;27.924;2023-02-26T05:24:29;32.08;;;8.68;;
30874;SDS011;17581;43.222;27.924;2023-02-26T05:26:54;36.35;;;8.38;;
30874;SDS011;17581;43.222;27.924;2023-02-26T05:29:20;29.27;;;8.68;;
30874;SDS011;17581;43.222;27.924;2023-02-26T05:31:45;24.35;;;8.63;;
30874;SDS011;17581;43.222;27.924;2023-02-26T05:34:11;32.65;;;8.32;;
30874;SDS011;17581;43.222;27.924;2023-02-26T05:36:36;37.78;;;9.45;;
30874;SDS011;17581;43.222;27.924;2023-02-26T05:39:02;33.55;;;9.35;;
30874;SDS011;17581;43.222;27.924;2023-02-26T05:41:27;34.85;;;8.80;;
30874;SDS011;17581;43.222;27.924;2023-02-26T05:43:53;30.05;;;10.02;;
30874;SDS011;17581;43.222;27.924;2023-02-26T05:46:18;25.30;;;8.50;;
30874;SDS011;17581;43.222;27.924;2023-02-26T05:48:43;32.75;;;9.15;;
30874;SDS011;17581;43.222;27.924;2023-02-26T05:51:09;28.55;;;9.35;;
30874;SDS011;17581;43.222;27.924;2023-02-26T05:53:34;32.42;;;9.40;;
30874;SDS011;17581;43.222;27.924;2023-02-26T05:56:00;35.10;;;9.18;;
30874;SDS011;17581;43.222;27.924;2023-02-26T05:58:26;32.78;;;8.65;;
30874;SDS011;17581;43.222;27.924;2023-02-26T06:00:51;29.20;;;8.77;;
30874;SDS011;17581;43.222;27.924;2023-02-26T06:03:17;46.50;;;9.15;;
30874;SDS011;17581;43.222;27.924;2023-02-26T06:05:43;31.25;;;9.13;;
30874;SDS011;17581;43.222;27.924;2023-02-26T06:08:08;33.72;;;11.13;;
30874;SDS011;17581;43.222;27.924;2023-02-26T06:10:36;34.75;;;11.60;;
30874;SDS011;17581;43.222;27.924;2023-02-26T06:13:01;30.27;;;10.25;;
30874;SDS011;17581;43.222;27.924;2023-02-26T06:15:27;35.95;;;12.88;;
30874;SDS011;17581;43.222;27.924;2023-02-26T06:17:52;29.38;;;9.23;;
30874;SDS011;17581;43.222;27.924;2023-02-26T06:20:18;27.95;;;8.70;;
30874;SDS011;17581;43.222;27.924;2023-02-26T06:22:43;29.77;;;9.15;;
30874;SDS011;17581;43.222;27.924;2023-02-26T06:25:08;44.20;;;9.38;;
30874;SDS011;17581;43.222;27.924;2023-02-26T06:27:34;32.30;;;8.98;;
30874;SDS011;17581;43.222;27.924;2023-02-26T06:29:59;35.65;;;9.73;;
30874;SDS011;17581;43.222;27.924;2023-02-26T06:32:25;32.75;;;8.32;;
30874;SDS011;17581;43.222;27.924;2023-02-26T06:34:50;30.73;;;9.32;;
30874;SDS011;17581;43.222;27.924;2023-02-26T06:37:15;41.38;;;9.55;;
30874;SDS011;17581;43.222;27.924;2023-02-26T06:39:41;29.27;;;8.70;;
30874;SDS011;17581;43.222;27.924;2023-02-26T06:42:07;29.42;;;10.10;;
30874;SDS011;17581;43.222;27.924;2023-02-26T06:44:32;26.95;;;8.88;;
30874;SDS011;17581;43.222;27.924;2023-02-26T06:46:58;46.08;;;9.13;;
30874;SDS011;17581;43.222;27.924;2023-02-26T06:49:23;50.70;;;10.57;;
30874;SDS011;17581;43.222;27.924;2023-02-26T06:51:48;33.58;;;9.98;;
30874;SDS011;17581;43.222;27.924;2023-02-26T06:54:14;29.50;;;8.90;;
30874;SDS011;17581;43.222;27.924;2023-02-26T06:56:40;34.85;;;10.27;;
30874;SDS011;17581;43.222;27.924;2023-02-26T06:59:05;40.72;;;8.98;;
30874;SDS011;17581;43.222;27.924;2023-02-26T07:01:30;38.97;;;9.20;;
30874;SDS011;17581;43.222;27.924;2023-02-26T07:03:57;31.55;;;7.97;;
30874;SDS011;17581;43.222;27.924;2023-02-26T07:06:22;39.05;;;9.55;;
30874;SDS011;17581;43.222;27.924;2023-02-26T07:08:48;44.67;;;10.40;;
30874;SDS011;17581;43.222;27.924;2023-02-26T07:11:14;36.83;;;9.98;;
30874;SDS011;17581;43.222;27.924;2023-02-26T07:13:39;28.88;;;9.43;;
30874;SDS011;17581;43.222;27.924;2023-02-26T07:16:05;36.55;;;10.48;;
30874;SDS011;17581;43.222;27.924;2023-02-26T07:18:32;40.22;;;11.63;;
30874;SDS011;17581;43.222;27.924;2023-02-26T07:21:01;45.42;;;9.55;;
30874;SDS011;17581;43.222;27.924;2023-02-26T07:23:27;38.00;;;9.90;;
30874;SDS011;17581;43.222;27.924;2023-02-26T07:25:53;38.50;;;9.70;;
30874;SDS011;17581;43.222;27.924;2023-02-26T07:28:18;47.28;;;8.88;;
30874;SDS011;17581;43.222;27.924;2023-02-26T07:30:44;55.35;;;12.70;;
30874;SDS011;17581;43.222;27.924;2023-02-26T07:33:10;35.20;;;11.55;;
30874;SDS011;17581;43.222;27.924;2023-02-26T07:35:36;40.60;;;9.55;;
30874;SDS011;17581;43.222;27.924;2023-02-26T07:38:02;31.35;;;10.02;;
30874;SDS011;17581;43.222;27.924;2023-02-26T07:40:28;30.73;;;10.15;;
30874;SDS011;17581;43.222;27.924;2023-02-26T07:42:53;38.53;;;9.88;;
30874;SDS011;17581;43.222;27.924;2023-02-26T07:45:19;37.85;;;8.48;;
30874;SDS011;17581;43.222;27.924;2023-02-26T07:47:47;27.00;;;9.45;;
30874;SDS011;17581;43.222;27.924;2023-02-26T07:50:13;36.85;;;9.75;;
30874;SDS011;17581;43.222;27.924;2023-02-26T07:52:38;39.88;;;9.98;;
30874;SDS011;17581;43.222;27.924;2023-02-26T07:55:04;37.85;;;10.18;;
30874;SDS011;17581;43.222;27.924;2023-02-26T07:57:30;40.15;;;9.07;;
30874;SDS011;17581;43.222;27.924;2023-02-26T07:59:55;41.38;;;10.52;;
30874;SDS011;17581;43.222;27.924;2023-02-26T08:02:21;40.22;;;9.07;;
30874;SDS011;17581;43.222;27.924;2023-02-26T08:04:47;38.95;;;9.70;;
30874;SDS011;17581;43.222;27.924;2023-02-26T08:07:13;34.80;;;8.80;;
30874;SDS011;17581;43.222;27.924;2023-02-26T08:09:38;34.65;;;8.93;;
30874;SDS011;17581;43.222;27.924;2023-02-26T08:12:04;60.35;;;10.00;;
30874;SDS011;17581;43.222;27.924;2023-02-26T08:14:29;40.58;;;9.35;;
30874;SDS011;17581;43.222;27.924;2023-02-26T08:16:55;36.00;;;9.18;;
30874;SDS011;17581;43.222;27.924;2023-02-26T08:19:20;31.92;;;9.05;;
30874;SDS011;17581;43.222;27.924;2023-02-26T08:21:46;35.42;;;10.13;;
30874;SDS011;17581;43.222;27.924;2023-02-26T08:24:11;69.28;;;10.73;;
30874;SDS011;17581;43.222;27.924;2023-02-26T08:26:37;33.25;;;8.00;;
30874;SDS011;17581;43.222;27.924;2023-02-26T08:29:03;36.45;;;8.93;;
30874;SDS011;17581;43.222;27.924;2023-02-26T08:31:29;35.17;;;8.98;;
30874;SDS011;17581;43.222;27.924;2023-02-26T08:33:55;32.97;;;8.32;;
30874;SDS011;17581;43.222;27.924;2023-02-26T08:36:21;33.58;;;8.73;;
30874;SDS011;17581;43.222;27.924;2023-02-26T08:38:47;41.72;;;8.27;;
30874;SDS011;17581;43.222;27.924;2023-02-26T08:41:12;40.58;;;10.80;;
30874;SDS011;17581;43.222;27.924;2023-02-26T08:43:38;128.23;;;15.15;;
30874;SDS011;17581;43.222;27.924;2023-02-26T08:46:04;50.30;;;9.85;;
30874;SDS011;17581;43.222;27.924;2023-02-26T08:48:29;39.08;;;8.40;;
30874;SDS011;17581;43.222;27.924;2023-02-26T08:50:55;44.55;;;10.43;;
30874;SDS011;17581;43.222;27.924;2023-02-26T08:53:20;43.60;;;9.07;;
30874;SDS011;17581;43.222;27.924;2023-02-26T08:55:49;56.55;;;9.18;;
30874;SDS011;17581;43.222;27.924;2023-02-26T08:58:15;44.20;;;8.27;;
30874;SDS011;17581;43.222;27.924;2023-02-26T09:00:41;53.80;;;9.95;;
30874;SDS011;17581;43.222;27.924;2023-02-26T09:03:06;48.38;;;8.75;;
30874;SDS011;17581;43.222;27.924;2023-02-26T09:05:32;48.80;;;8.55;;
30874;SDS011;17581;43.222;27.924;2023-02-26T09:07:57;39.58;;;8.93;;
30874;SDS011;17581;43.222;27.924;2023-02-26T09:10:23;36.78;;;9.68;;
30874;SDS011;17581;43.222;27.924;2023-02-26T09:12:48;41.53;;;8.55;;
30874;SDS011;17581;43.222;27.924;2023-02-26T09:15:14;34.53;;;8.13;;
30874;SDS011;17581;43.222;27.924;2023-02-26T09:17:39;44.90;;;9.32;;
30874;SDS011;17581;43.222;27.924;2023-02-26T09:20:06;63.92;;;8.55;;
30874;SDS011;17581;43.222;27.924;2023-02-26T09:22:33;48.50;;;8.20;;
30874;SDS011;17581;43.222;27.924;2023-02-26T09:24:59;27.10;;;7.20;;
30874;SDS011;17581;43.222;27.924;2023-02-26T09:27:25;49.67;;;8.15;;
30874;SDS011;17581;43.222;27.924;2023-02-26T09:29:50;34.30;;;7.68;;
30874;SDS011;17581;43.222;27.924;2023-02-26T09:32:16;35.70;;;8.82;;
30874;SDS011;17581;43.222;27.924;2023-02-26T09:34:41;37.47;;;8.18;;
30874;SDS011;17581;43.222;27.924;2023-02-26T09:37:07;33.22;;;7.80;;
30874;SDS011;17581;43.222;27.924;2023-02-26T09:39:34;42.83;;;8.32;;
30874;SDS011;17581;43.222;27.924;2023-02-26T09:44:41;50.53;;;9.95;;
30874;SDS011;17581;43.222;27.924;2023-02-26T09:47:14;53.65;;;8.02;;
30874;SDS011;17581;43.222;27.924;2023-02-26T09:52:33;42.70;;;9.23;;
30874;SDS011;17581;43.222;27.924;2023-02-26T09:57:44;53.33;;;9.02;;
30874;SDS011;17581;43.222;27.924;2023-02-26T10:03:05;38.45;;;10.18;;
30874;SDS011;17581;43.222;27.924;2023-02-26T10:06:04;44.00;;;7.15;;
30874;SDS011;17581;43.222;27.924;2023-02-26T10:14:16;33.20;;;6.80;;
30874;SDS011;17581;43.222;27.924;2023-02-26T10:16:48;34.00;;;7.07;;
30874;SDS011;17581;43.222;27.924;2023-02-26T10:19:18;32.78;;;7.28;;
30874;SDS011;17581;43.222;27.924;2023-02-26T10:24:21;54.50;;;8.00;;
30874;SDS011;17581;43.222;27.924;2023-02-26T10:34:38;33.53;;;7.57;;
30874;SDS011;17581;43.222;27.924;2023-02-26T10:37:19;36.55;;;7.93;;
30874;SDS011;17581;43.222;27.924;2023-02-26T10:39:55;43.75;;;6.68;;
30874;SDS011;17581;43.222;27.924;2023-02-26T10:42:36;38.30;;;7.93;;
30874;SDS011;17581;43.222;27.924;2023-02-26T10:50:52;29.65;;;8.70;;
30874;SDS011;17581;43.222;27.924;2023-02-26T10:53:20;53.03;;;11.35;;
30874;SDS011;17581;43.222;27.924;2023-02-26T10:55:51;25.88;;;6.82;;
30874;SDS011;17581;43.222;27.924;2023-02-26T10:58:24;19.95;;;5.65;;
30874;SDS011;17581;43.222;27.924;2023-02-26T11:00:51;35.13;;;6.75;;
30874;SDS011;17581;43.222;27.924;2023-02-26T11:03:19;31.65;;;8.15;;
30874;SDS011;17581;43.222;27.924;2023-02-26T11:05:49;34.47;;;6.53;;
30874;SDS011;17581;43.222;27.924;2023-02-26T11:08:27;37.22;;;7.43;;
30874;SDS011;17581;43.222;27.924;2023-02-26T11:10:57;21.33;;;6.75;;
30874;SDS011;17581;43.222;27.924;2023-02-26T11:13:25;52.92;;;8.75;;
30874;SDS011;17581;43.222;27.924;2023-02-26T11:15:53;27.40;;;6.75;;
30874;SDS011;17581;43.222;27.924;2023-02-26T11:18:25;22.67;;;7.50;;
30874;SDS011;17581;43.222;27.924;2023-02-26T11:20:55;36.05;;;7.68;;
30874;SDS011;17581;43.222;27.924;2023-02-26T11:23:25;44.45;;;7.57;;
30874;SDS011;17581;43.222;27.924;2023-02-26T11:25:56;26.58;;;7.25;;
30874;SDS011;17581;43.222;27.924;2023-02-26T11:28:36;21.38;;;6.43;;
30874;SDS011;17581;43.222;27.924;2023-02-26T11:31:09;41.88;;;7.95;;
30874;SDS011;17581;43.222;27.924;2023-02-26T11:33:37;38.58;;;6.80;;
30874;SDS011;17581;43.222;27.924;2023-02-26T11:36:08;37.65;;;8.35;;
30874;SDS011;17581;43.222;27.924;2023-02-26T11:38:36;24.20;;;5.85;;
30874;SDS011;17581;43.222;27.924;2023-02-26T11:41:03;40.45;;;7.28;;
30874;SDS011;17581;43.222;27.924;2023-02-26T11:43:35;37.85;;;8.27;;
30874;SDS011;17581;43.222;27.924;2023-02-26T11:46:06;26.17;;;6.80;;
30874;SDS011;17581;43.222;27.924;2023-02-26T11:51:10;33.22;;;7.40;;
30874;SDS011;17581;43.222;27.924;2023-02-26T11:53:47;26.95;;;6.93;;
30874;SDS011;17581;43.222;27.924;2023-02-26T11:56:25;27.88;;;6.18;;
30874;SDS011;17581;43.222;27.924;2023-02-26T11:59:00;32.75;;;8.05;;
30874;SDS011;17581;43.222;27.924;2023-02-26T12:01:30;36.10;;;7.90;;
30874;SDS011;17581;43.222;27.924;2023-02-26T12:03:57;28.15;;;8.02;;
30874;SDS011;17581;43.222;27.924;2023-02-26T12:06:24;33.17;;;7.75;;
30874;SDS011;17581;43.222;27.924;2023-02-26T12:08:50;34.28;;;6.65;;
30874;SDS011;17581;43.222;27.924;2023-02-26T12:11:39;32.25;;;7.38;;
30874;SDS011;17581;43.222;27.924;2023-02-26T12:17:10;23.50;;;7.30;;
30874;SDS011;17581;43.222;27.924;2023-02-26T12:40:53;23.17;;;6.38;;
30874;SDS011;17581;43.222;27.924;2023-02-26T12:48:39;38.10;;;7.80;;
30874;SDS011;17581;43.222;27.924;2023-02-26T13:01:53;32.30;;;7.18;;
30874;SDS011;17581;43.222;27.924;2023-02-26T13:12:34;31.38;;;9.05;;
30874;SDS011;17581;43.222;27.924;2023-02-26T13:18:20;36.83;;;8.50;;
30874;SDS011;17581;43.222;27.924;2023-02-26T13:23:48;29.10;;;7.55;;
30874;SDS011;17581;43.222;27.924;2023-02-26T13:26:16;24.55;;;7.55;;
30874;SDS011;17581;43.222;27.924;2023-02-26T13:28:55;35.00;;;7.82;;
30874;SDS011;17581;43.222;27.924;2023-02-26T13:31:38;23.75;;;8.02;;
30874;SDS011;17581;43.222;27.924;2023-02-26T13:34:20;28.87;;;7.50;;
30874;SDS011;17581;43.222;27.924;2023-02-26T13:36:55;31.02;;;7.10;;
30874;SDS011;17581;43.222;27.924;2023-02-26T13:42:18;32.65;;;8.05;;
30874;SDS011;17581;43.222;27.924;2023-02-26T13:45:04;31.42;;;8.05;;
30874;SDS011;17581;43.222;27.924;2023-02-26T13:53:48;34.15;;;7.70;;
30874;SDS011;17581;43.222;27.924;2023-02-26T14:04:28;17.58;;;6.90;;
30874;SDS011;17581;43.222;27.924;2023-02-26T14:06:57;28.73;;;8.25;;
30874;SDS011;17581;43.222;27.924;2023-02-26T14:11:57;36.42;;;7.28;;
30874;SDS011;17581;43.222;27.924;2023-02-26T14:22:01;24.55;;;8.05;;
30874;SDS011;17581;43.222;27.924;2023-02-26T14:32:45;22.30;;;7.50;;
30874;SDS011;17581;43.222;27.924;2023-02-26T14:35:12;26.70;;;9.20;;
30874;SDS011;17581;43.222;27.924;2023-02-26T14:37:43;27.73;;;7.45;;
30874;SDS011;17581;43.222;27.924;2023-02-26T14:40:18;25.45;;;8.30;;
30874;SDS011;17581;43.222;27.924;2023-02-26T14:47:55;33.85;;;8.60;;
30874;SDS011;17581;43.222;27.924;2023-02-26T14:50:27;30.77;;;9.13;;
30874;SDS011;17581;43.222;27.924;2023-02-26T14:53:12;28.67;;;8.05;;
30874;SDS011;17581;43.222;27.924;2023-02-26T15:03:40;37.85;;;8.40;;
30874;SDS011;17581;43.222;27.924;2023-02-26T15:07:00;32.80;;;8.77;;
30874;SDS011;17581;43.222;27.924;2023-02-26T15:15:10;26.30;;;7.82;;
30874;SDS011;17581;43.222;27.924;2023-02-26T15:20:53;22.02;;;7.45;;
30874;SDS011;17581;43.222;27.924;2023-02-26T15:26:01;24.88;;;8.10;;
30874;SDS011;17581;43.222;27.924;2023-02-26T15:28:34;31.02;;;7.65;;
30874;SDS011;17581;43.222;27.924;2023-02-26T15:31:03;25.80;;;7.60;;
30874;SDS011;17581;43.222;27.924;2023-02-26T15:33:32;25.13;;;7.78;;
30874;SDS011;17581;43.222;27.924;2023-02-26T15:35:58;26.65;;;8.35;;
30874;SDS011;17581;43.222;27.924;2023-02-26T15:38:25;28.67;;;8.35;;
30874;SDS011;17581;43.222;27.924;2023-02-26T15:40:52;30.50;;;8.13;;
30874;SDS011;17581;43.222;27.924;2023-02-26T15:43:20;29.60;;;7.80;;
30874;SDS011;17581;43.222;27.924;2023-02-26T15:45:51;31.17;;;9.48;;
30874;SDS011;17581;43.222;27.924;2023-02-26T15:48:28;38.35;;;7.65;;
30874;SDS011;17581;43.222;27.924;2023-02-26T15:50:59;28.40;;;8.43;;
30874;SDS011;17581;43.222;27.924;2023-02-26T15:53:31;33.67;;;8.57;;
30874;SDS011;17581;43.222;27.924;2023-02-26T15:56:05;23.60;;;8.85;;
30874;SDS011;17581;43.222;27.924;2023-02-26T15:58:53;32.80;;;8.45;;
30874;SDS011;17581;43.222;27.924;2023-02-26T16:01:24;28.88;;;8.38;;
30874;SDS011;17581;43.222;27.924;2023-02-26T16:03:53;34.13;;;9.15;;
30874;SDS011;17581;43.222;27.924;2023-02-26T16:06:27;35.97;;;9.40;;
30874;SDS011;17581;43.222;27.924;2023-02-26T16:08:54;31.00;;;11.63;;
30874;SDS011;17581;43.222;27.924;2023-02-26T16:11:20;37.55;;;10.60;;
30874;SDS011;17581;43.222;27.924;2023-02-26T16:13:48;27.33;;;8.82;;
30874;SDS011;17581;43.222;27.924;2023-02-26T16:16:26;26.92;;;10.05;;
30874;SDS011;17581;43.222;27.924;2023-02-26T16:18:54;42.88;;;8.88;;
30874;SDS011;17581;43.222;27.924;2023-02-26T16:23:49;32.13;;;8.52;;
30874;SDS011;17581;43.222;27.924;2023-02-26T16:26:21;26.40;;;9.10;;
30874;SDS011;17581;43.222;27.924;2023-02-26T16:29:00;39.95;;;9.13;;
30874;SDS011;17581;43.222;27.924;2023-02-26T16:31:30;20.90;;;7.75;;
30874;SDS011;17581;43.222;27.924;2023-02-26T16:36:28;24.58;;;9.02;;
30874;SDS011;17581;43.222;27.924;2023-02-26T16:39:14;30.75;;;8.27;;
30874;SDS011;17581;43.222;27.924;2023-02-26T16:41:46;37.80;;;8.63;;
30874;SDS011;17581;43.222;27.924;2023-02-26T16:46:54;32.92;;;8.55;;
30874;SDS011;17581;43.222;27.924;2023-02-26T16:49:25;19.95;;;8.32;;
30874;SDS011;17581;43.222;27.924;2023-02-26T16:51:55;24.67;;;7.10;;
30874;SDS011;17581;43.222;27.924;2023-02-26T16:57:02;34.55;;;7.93;;
30874;SDS011;17581;43.222;27.924;2023-02-26T17:02:04;25.35;;;7.97;;
30874;SDS011;17581;43.222;27.924;2023-02-26T17:04:37;31.92;;;8.18;;
30874;SDS011;17581;43.222;27.924;2023-02-26T17:10:17;35.08;;;7.47;;
30874;SDS011;17581;43.222;27.924;2023-02-26T17:12:49;31.40;;;7.50;;
30874;SDS011;17581;43.222;27.924;2023-02-26T17:15:26;26.92;;;7.82;;
30874;SDS011;17581;43.222;27.924;2023-02-26T17:17:54;34.03;;;6.53;;
30874;SDS011;17581;43.222;27.924;2023-02-26T17:20:23;34.67;;;7.53;;
30874;SDS011;17581;43.222;27.924;2023-02-26T17:22:49;27.38;;;7.68;;
30874;SDS011;17581;43.222;27.924;2023-02-26T17:25:16;38.22;;;6.85;;
30874;SDS011;17581;43.222;27.924;2023-02-26T17:27:43;25.98;;;6.22;;
30874;SDS011;17581;43.222;27.924;2023-02-26T17:30:13;28.95;;;6.90;;
30874;SDS011;17581;43.222;27.924;2023-02-26T17:32:42;29.58;;;6.57;;
30874;SDS011;17581;43.222;27.924;2023-02-26T17:35:10;19.70;;;5.53;;
30874;SDS011;17581;43.222;27.924;2023-02-26T17:37:37;31.65;;;8.10;;
30874;SDS011;17581;43.222;27.924;2023-02-26T17:40:03;23.67;;;6.40;;
30874;SDS011;17581;43.222;27.924;2023-02-26T17:42:39;29.17;;;7.03;;
30874;SDS011;17581;43.222;27.924;2023-02-26T17:45:04;33.38;;;6.40;;
30874;SDS011;17581;43.222;27.924;2023-02-26T17:47:30;24.20;;;6.38;;
30874;SDS011;17581;43.222;27.924;2023-02-26T17:49:56;17.10;;;6.65;;
30874;SDS011;17581;43.222;27.924;2023-02-26T17:52:21;27.08;;;6.53;;
30874;SDS011;17581;43.222;27.924;2023-02-26T17:54:46;29.52;;;6.78;;
30874;SDS011;17581;43.222;27.924;2023-02-26T17:57:16;33.97;;;6.20;;
30874;SDS011;17581;43.222;27.924;2023-02-26T17:59:44;29.92;;;7.28;;
30874;SDS011;17581;43.222;27.924;2023-02-26T18:02:17;24.52;;;6.63;;
30874;SDS011;17581;43.222;27.924;2023-02-26T18:04:46;24.33;;;6.80;;
30874;SDS011;17581;43.222;27.924;2023-02-26T18:07:13;19.65;;;6.95;;
30874;SDS011;17581;43.222;27.924;2023-02-26T18:09:41;28.35;;;7.03;;
30874;SDS011;17581;43.222;27.924;2023-02-26T18:12:11;34.35;;;7.85;;